createdAt,value
2016-01-24T00:00:49.444Z,1029.11
2016-01-24T00:01:49.384Z,1029.12
2016-01-24T00:02:49.386Z,1029.07
2016-01-24T00:03:49.380Z,1029.07
2016-01-24T00:04:49.322Z,1029.1
2016-01-24T00:05:49.327Z,1029.09
2016-01-24T00:06:49.348Z,1029.1
2016-01-24T00:07:49.272Z,1029.08
2016-01-24T00:08:49.260Z,1029.08
2016-01-24T00:09:49.325Z,1029.1
2016-01-24T00:10:49.281Z,1029.16
2016-01-24T00:11:49.129Z,1029.15
2016-01-24T00:12:49.164Z,1029.14
2016-01-24T00:13:49.167Z,1029.13
2016-01-24T00:14:49.092Z,1029.14
2016-01-24T00:15:49.048Z,1029.11
2016-01-24T00:16:49.052Z,1029.08
2016-01-24T00:17:49.025Z,1029.06
2016-01-24T00:18:48.978Z,1029.05
2016-01-24T00:19:48.980Z,1029.08
2016-01-24T00:20:48.952Z,1029.07
2016-01-24T00:21:48.974Z,1029.07
2016-01-24T00:22:48.963Z,1029.09
2016-01-24T00:23:48.856Z,1029.06
2016-01-24T00:24:48.875Z,1029.09
2016-01-24T00:25:48.815Z,1029.09
2016-01-24T00:26:48.802Z,1029.09
2016-01-24T00:27:48.759Z,1029.09
2016-01-24T00:28:48.732Z,1029.07
2016-01-24T00:29:48.706Z,1029.04
2016-01-24T00:30:48.694Z,1029.02
2016-01-24T00:31:48.711Z,1029.08
2016-01-24T00:32:48.622Z,1029.02
2016-01-24T00:33:48.593Z,1029.05
2016-01-24T00:34:48.659Z,1029.04
2016-01-24T00:35:48.537Z,1029.15
2016-01-24T00:36:48.511Z,1029.11
2016-01-24T00:37:48.527Z,1029.12
2016-01-24T00:38:48.485Z,1029.15
2016-01-24T00:39:48.462Z,1029.15
2016-01-24T00:40:48.435Z,1029.17
2016-01-24T00:41:48.390Z,1029.18
2016-01-24T00:42:48.442Z,1029.19
2016-01-24T00:43:48.351Z,1029.23
2016-01-24T00:44:48.339Z,1029.22
2016-01-24T00:45:48.293Z,1029.26
2016-01-24T00:46:48.283Z,1029.24
2016-01-24T00:47:48.289Z,1029.3
2016-01-24T00:48:48.228Z,1029.26
2016-01-24T00:49:48.199Z,1029.27
2016-01-24T00:50:48.187Z,1029.27
2016-01-24T00:51:48.162Z,1029.28
2016-01-24T00:52:48.181Z,1029.29
2016-01-24T00:53:48.104Z,1029.33
2016-01-24T00:54:48.076Z,1029.35
2016-01-24T00:55:48.065Z,1029.36
2016-01-24T00:56:48.004Z,1029.4
2016-01-24T00:57:48.055Z,1029.39
2016-01-24T00:58:48.027Z,1029.45
2016-01-24T00:59:47.953Z,1029.46
2016-01-24T01:00:47.971Z,1029.45
2016-01-24T01:01:47.898Z,1029.49
2016-01-24T01:02:47.917Z,1029.53
2016-01-24T01:03:47.887Z,1029.58
2016-01-24T01:04:47.843Z,1029.58
2016-01-24T01:05:47.863Z,1029.6
2016-01-24T01:06:47.899Z,1029.55
2016-01-24T01:07:47.762Z,1029.55
2016-01-24T01:08:47.748Z,1029.57
2016-01-24T01:09:47.689Z,1029.58
2016-01-24T01:10:47.696Z,1029.59
2016-01-24T01:11:47.682Z,1029.64
2016-01-24T01:12:47.638Z,1029.64
2016-01-24T01:13:47.578Z,1029.66
2016-01-24T01:14:47.582Z,1029.62
2016-01-24T01:15:47.577Z,1029.66
2016-01-24T01:16:47.536Z,1029.64
2016-01-24T01:17:47.495Z,1029.65
2016-01-24T01:18:47.454Z,1029.6
2016-01-24T01:19:47.397Z,1029.6
2016-01-24T01:20:47.348Z,1029.58
2016-01-24T01:21:47.331Z,1029.58
2016-01-24T01:22:47.316Z,1029.53
2016-01-24T01:23:47.345Z,1029.5
2016-01-24T01:24:47.250Z,1029.47
2016-01-24T01:27:46.644Z,1029.33
2016-01-24T01:28:46.613Z,1029.33
2016-01-24T01:29:46.557Z,1029.32
2016-01-24T01:30:46.606Z,1029.32
2016-01-24T01:31:46.528Z,1029.32
2016-01-24T01:32:46.516Z,1029.35
2016-01-24T01:33:46.507Z,1029.32
2016-01-24T01:34:46.446Z,1029.34
2016-01-24T01:35:46.463Z,1029.32
2016-01-24T01:36:46.373Z,1029.34
2016-01-24T01:37:46.392Z,1029.31
2016-01-24T01:38:46.380Z,1029.31
2016-01-24T01:39:46.320Z,1029.3
2016-01-24T01:40:46.276Z,1029.25
2016-01-24T01:41:46.296Z,1029.26
2016-01-24T01:42:46.251Z,1029.27
2016-01-24T01:43:46.207Z,1029.27
2016-01-24T01:44:46.195Z,1029.25
2016-01-24T01:45:46.151Z,1029.3
2016-01-24T01:46:46.217Z,1029.24
2016-01-24T01:47:46.095Z,1029.2
2016-01-24T01:48:46.067Z,1029.24
2016-01-24T01:49:46.086Z,1029.22
2016-01-24T01:50:46.061Z,1029.23
2016-01-24T01:51:46.032Z,1029.23
2016-01-24T01:52:46.006Z,1029.22
2016-01-24T01:53:45.978Z,1029.29
2016-01-24T01:54:45.950Z,1029.29
2016-01-24T01:55:45.953Z,1029.33
2016-01-24T01:56:45.865Z,1029.33
2016-01-24T01:57:45.868Z,1029.36
2016-01-24T01:58:45.823Z,1029.35
2016-01-24T01:59:45.827Z,1029.35
2016-01-24T02:00:45.798Z,1029.37
2016-01-24T02:01:45.771Z,1029.35
2016-01-24T02:02:45.820Z,1029.32
2016-01-24T02:03:45.714Z,1029.3
2016-01-24T02:04:45.670Z,1029.32
2016-01-24T02:05:45.657Z,1029.28
2016-01-24T02:06:45.650Z,1029.27
2016-01-24T02:07:45.636Z,1029.3
2016-01-24T02:08:45.609Z,1029.31
2016-01-24T02:09:45.551Z,1029.32
2016-01-24T02:10:45.558Z,1029.31
2016-01-24T02:11:45.498Z,1029.31
2016-01-24T02:12:45.548Z,1029.33
2016-01-24T02:13:45.537Z,1029.32
2016-01-24T02:14:45.462Z,1029.33
2016-01-24T02:15:45.403Z,1029.38
2016-01-24T02:16:45.405Z,1029.39
2016-01-24T02:17:45.393Z,1029.38
2016-01-24T02:18:45.380Z,1029.35
2016-01-24T02:19:45.351Z,1029.37
2016-01-24T02:20:45.312Z,1029.38
2016-01-24T02:21:45.253Z,1029.37
2016-01-24T02:22:45.258Z,1029.37
2016-01-24T02:23:45.198Z,1029.37
2016-01-24T02:24:45.187Z,1029.42
2016-01-24T02:25:45.173Z,1029.43
2016-01-24T02:26:45.128Z,1029.41
2016-01-24T02:27:45.101Z,1029.38
2016-01-24T02:28:45.107Z,1029.35
2016-01-24T02:29:45.234Z,1029.33
2016-01-24T02:30:45.033Z,1029.33
2016-01-24T02:31:45.005Z,1029.34
2016-01-24T02:32:45.009Z,1029.3
2016-01-24T02:33:44.981Z,1029.29
2016-01-24T02:34:44.937Z,1029.27
2016-01-24T02:35:44.924Z,1029.24
2016-01-24T02:36:44.912Z,1029.21
2016-01-24T02:37:44.836Z,1029.19
2016-01-24T02:38:44.856Z,1029.17
2016-01-24T02:39:44.828Z,1029.15
2016-01-24T02:40:44.799Z,1029.11
2016-01-24T02:41:44.786Z,1029.12
2016-01-24T02:42:44.820Z,1029.15
2016-01-24T02:43:44.683Z,1029.07
2016-01-24T02:44:44.702Z,1029.09
2016-01-24T02:45:44.674Z,1029.1
2016-01-24T02:46:44.630Z,1029.09
2016-01-24T02:47:44.651Z,1029.06
2016-01-24T02:48:44.576Z,1029.09
2016-01-24T02:49:44.548Z,1029.04
2016-01-24T02:50:44.552Z,1029.08
2016-01-24T02:51:44.524Z,1029.08
2016-01-24T02:52:44.505Z,1029.09
2016-01-24T02:53:44.432Z,1029.13
2016-01-24T02:54:44.482Z,1029.15
2016-01-24T02:55:44.423Z,1029.17
2016-01-24T02:56:44.378Z,1029.13
2016-01-24T02:57:44.335Z,1029.15
2016-01-24T02:58:44.321Z,1029.16
2016-01-24T02:59:44.326Z,1029.16
2016-01-24T03:00:44.281Z,1029.15
2016-01-24T03:01:44.254Z,1029.14
2016-01-24T03:02:44.241Z,1029.12
2016-01-24T03:03:44.229Z,1029.12
2016-01-24T03:04:44.199Z,1029.1
2016-01-24T03:05:44.204Z,1029.08
2016-01-24T03:06:44.131Z,1029.12
2016-01-24T03:07:44.133Z,1029.08
2016-01-24T03:08:44.105Z,1029.11
2016-01-24T03:09:44.078Z,1029.11
2016-01-24T03:10:44.052Z,1029.09
2016-01-24T03:11:44.023Z,1029.1
2016-01-24T03:12:43.994Z,1029.05
2016-01-24T03:13:43.952Z,1029.11
2016-01-24T03:14:43.970Z,1029.05
2016-01-24T03:15:43.927Z,1029.05
2016-01-24T03:16:43.867Z,1029.02
2016-01-24T03:17:43.870Z,1029.06
2016-01-24T03:18:43.842Z,1029.05
2016-01-24T03:19:43.814Z,1029.05
2016-01-24T03:20:43.755Z,1029.06
2016-01-24T03:21:43.820Z,1029.04
2016-01-24T03:22:43.713Z,1029.01
2016-01-24T03:23:43.748Z,1029.02
2016-01-24T03:24:43.695Z,1029.03
2016-01-24T03:25:43.635Z,1029.03
2016-01-24T03:26:43.637Z,1029.06
2016-01-24T03:27:43.609Z,1029.01
2016-01-24T03:28:43.596Z,1029.06
2016-01-24T03:29:43.599Z,1029.06
2016-01-24T03:30:43.540Z,1029.07
2016-01-24T03:31:43.527Z,1029.07
